| time (UTC) | temp F | wind direction | speed knots | gust knots | rain 1hr in | rain 24hr in | rain mn in | humidity % | barometer mb |
| 20260831042341 | 55 | 230 | 0.0 | 0.0 | 0.00 | 0.00 | 0.00 | 94 | 1028.4 |
| 20260831041836 | 56 | 230 | 0.0 | 0.0 | 0.00 | 0.00 | 0.00 | 94 | 1028.4 |
| 20260831041335 | 56 | 230 | 0.0 | 0.0 | 0.00 | 0.00 | 0.00 | 94 | 1028.4 |
| 20260831040830 | 56 | 230 | 0.0 | 0.0 | 0.00 | 0.00 | 0.00 | 94 | 1028.2 |
| 20260831040329 | 57 | 230 | 0.0 | 0.0 | 0.00 | 0.00 | 0.00 | 93 | 1028.3 |
| 20260831035828 | 57 | 230 | 0.0 | 0.0 | 0.00 | 0.01 | 0.01 | 93 | 1028.3 |
| 20260831035327 | 57 | 230 | 0.0 | 0.0 | 0.00 | 0.01 | 0.01 | 93 | 1028.4 |
| 20260831034822 | 57 | 230 | 0.0 | 0.0 | 0.00 | 0.01 | 0.01 | 93 | 1028.2 |
| 20260831034317 | 57 | 230 | 0.0 | 0.0 | 0.00 | 0.01 | 0.01 | 93 | 1028.3 |
| 20260831033812 | 58 | 230 | 0.0 | 0.0 | 0.00 | 0.01 | 0.01 | 92 | 1028.4 |
| 20260831033307 | 58 | 230 | 0.0 | 0.0 | 0.00 | 0.01 | 0.01 | 92 | 1028.2 |
| 20260831032803 | 58 | 230 | 0.0 | 0.0 | 0.00 | 0.01 | 0.01 | 92 | 1028.3 |
| 20260831032257 | 59 | 230 | 0.0 | 0.0 | 0.00 | 0.01 | 0.01 | 91 | 1028.1 |
| 20260831031752 | 59 | 230 | 0.0 | 0.0 | 0.00 | 0.01 | 0.01 | 91 | 1028.0 |
| 20260831031251 | 59 | 230 | 0.0 | 0.0 | 0.00 | 0.01 | 0.01 | 91 | 1027.8 |
| 20260831030746 | 59 | 230 | 0.0 | 0.0 | 0.00 | 0.01 | 0.01 | 90 | 1027.9 |
| 20260831030244 | 59 | 230 | 0.0 | 0.0 | 0.00 | 0.01 | 0.01 | 90 | 1027.9 |
| 20260831025744 | 60 | 230 | 0.0 | 0.9 | 0.07 | 0.01 | 0.01 | 89 | 1028.3 |
| 20260831025238 | 60 | 230 | 0.0 | 0.0 | 0.07 | 0.01 | 0.01 | 87 | 1027.9 |
| 20260831024735 | 60 | 230 | 0.0 | 0.0 | 0.00 | 0.00 | 0.00 | 85 | 1027.9 |
| 20260831024233 | 61 | 230 | 0.0 | 0.9 | 0.00 | 0.00 | 0.00 | 84 | 1028.6 |
| 20260831023732 | 62 | 230 | 0.0 | 0.0 | 0.00 | 0.00 | 0.00 | 84 | 1028.3 |
| 20260831023231 | 62 | 230 | 0.0 | 0.0 | 0.00 | 0.00 | 0.00 | 79 | 1028.4 |
| 20260831022726 | 62 | 230 | 0.9 | 1.7 | 0.00 | 0.00 | 0.00 | 80 | 1028.3 |
| 20260831022221 | 62 | 230 | 0.0 | 1.7 | 0.00 | 0.00 | 0.00 | 80 | 1028.4 |
| 20260831021720 | 62 | 230 | 0.0 | 1.7 | 0.00 | 0.00 | 0.00 | 80 | 1028.2 |
| 20260831021215 | 62 | 230 | 0.0 | 0.0 | 0.00 | 0.00 | 0.00 | 81 | 1028.3 |
| 20260831020712 | 62 | 230 | 0.0 | 1.7 | 0.00 | 0.00 | 0.00 | 80 | 1028.5 |
| 20260831020210 | 62 | 230 | 0.9 | 1.7 | 0.00 | 0.00 | 0.00 | 79 | 1028.6 |
| 20260831015706 | 63 | 230 | 0.9 | 3.5 | 0.00 | 0.00 | 0.00 | 80 | 1028.2 |
| 20260831015201 | 63 | 230 | 0.9 | 1.7 | 0.00 | 0.00 | 0.00 | 80 | 1028.1 |
| 20260831014656 | 64 | 230 | 0.9 | 1.7 | 0.00 | 0.00 | 0.00 | 78 | 1028.4 |
| 20260831014151 | 66 | 230 | 0.9 | 5.2 | 0.00 | 0.00 | 0.00 | 73 | 1028.0 |
| 20260831013647 | 67 | 230 | 1.7 | 7.8 | 0.00 | 0.00 | 0.00 | 69 | 1028.0 |
| 20260831013146 | 66 | 230 | 2.6 | 5.2 | 0.00 | 0.00 | 0.00 | 71 | 1027.8 |
| 20260831012642 | 64 | 230 | 1.7 | 1.7 | 0.00 | 0.00 | 0.00 | 82 | 1027.5 |
| 20260831012137 | 64 | 230 | 0.0 | 0.0 | 0.00 | 0.00 | 0.00 | 82 | 1027.0 |
| 20260831011636 | 64 | 230 | 0.0 | 0.0 | 0.00 | 0.00 | 0.00 | 82 | 1026.8 |
| 20260831011132 | 64 | 230 | 0.0 | 0.0 | 0.00 | 0.00 | 0.00 | 82 | 1026.9 |
| 20260831010627 | 64 | 230 | 0.0 | 0.0 | 0.00 | 0.00 | 0.00 | 82 | 1026.5 |
| 20260831010122 | 64 | 230 | 0.0 | 0.0 | 0.00 | 0.00 | 0.00 | 82 | 1026.3 |
| 20260831005617 | 64 | 230 | 0.0 | 0.0 | 0.00 | 0.00 | 0.00 | 82 | 1026.5 |
| 20260831005112 | 64 | 230 | 0.0 | 0.0 | 0.00 | 0.00 | 0.00 | 82 | 1026.4 |
| 20260831004608 | 64 | 230 | 0.0 | 0.0 | 0.00 | 0.00 | 0.00 | 82 | 1026.3 |
| 20260831004103 | 64 | 230 | 0.0 | 0.0 | 0.00 | 0.00 | 0.00 | 82 | 1026.3 |
| 20260831003600 | 65 | 230 | 0.0 | 0.0 | 0.00 | 0.00 | 0.00 | 82 | 1026.1 |
| 20260831003055 | 65 | 230 | 0.0 | 0.0 | 0.00 | 0.00 | 0.00 | 82 | 1026.2 |
| 20260831002554 | 65 | 230 | 0.0 | 0.0 | 0.00 | 0.00 | 0.00 | 81 | 1026.1 |
| 20260831002049 | 66 | 230 | 0.0 | 0.0 | 0.00 | 0.00 | 0.00 | 79 | 1026.4 |
| 20260831001544 | 66 | 230 | 0.0 | 0.0 | 0.00 | 0.00 | 0.00 | 78 | 1026.3 |
| 20260831001041 | 67 | 230 | 0.0 | 0.0 | 0.00 | 0.00 | 0.00 | 78 | 1026.2 |
| 20260831000537 | 67 | 230 | 0.0 | 0.0 | 0.00 | 0.00 | 0.00 | 77 | 1026.1 |
| 20260831000036 | 67 | 230 | 0.0 | 0.0 | 0.00 | 0.00 | 0.00 | 77 | 1026.2 |
| 20260830235535 | 67 | 230 | 0.0 | 0.0 | 0.00 | 0.00 | 0.00 | 77 | 1026.0 |
| 20260830235031 | 67 | 230 | 0.0 | 0.0 | 0.00 | 0.00 | 0.00 | 77 | 1026.0 |
| 20260830234525 | 67 | 230 | 0.0 | 0.0 | 0.00 | 0.00 | 0.00 | 77 | 1025.8 |
| 20260830234021 | 68 | 230 | 0.0 | 0.0 | 0.00 | 0.00 | 0.00 | 77 | 1025.9 |
| 20260830233516 | 68 | 230 | 0.0 | 0.0 | 0.00 | 0.00 | 0.00 | 77 | 1025.9 |
| 20260830233012 | 68 | 230 | 0.0 | 0.0 | 0.00 | 0.00 | 0.00 | 75 | 1025.8 |
| 20260830232508 | 68 | 230 | 0.0 | 0.0 | 0.00 | 0.00 | 0.00 | 75 | 1025.8 |
| 20260830232004 | 68 | 230 | 0.0 | 0.0 | 0.00 | 0.00 | 0.00 | 75 | 1025.8 |
| 20260830231459 | 68 | 230 | 0.0 | 0.0 | 0.00 | 0.00 | 0.00 | 75 | 1026.0 |
| 20260830230958 | 69 | 230 | 0.0 | 0.0 | 0.00 | 0.00 | 0.00 | 74 | 1025.7 |
| 20260830230454 | 69 | 230 | 0.0 | 0.0 | 0.00 | 0.00 | 0.00 | 74 | 1025.7 |
| 20260830225952 | 69 | 230 | 0.0 | 0.9 | 0.00 | 0.00 | 0.00 | 74 | 1025.9 |
| 20260830225449 | 69 | 230 | 0.0 | 0.0 | 0.00 | 0.00 | 0.00 | 72 | 1025.9 |
| 20260830224948 | 69 | 230 | 0.0 | 0.0 | 0.00 | 0.00 | 0.00 | 74 | 1025.9 |
| 20260830224447 | 69 | 230 | 0.0 | 0.9 | 0.00 | 0.00 | 0.00 | 72 | 1025.8 |
| 20260830223944 | 69 | 230 | 0.0 | 0.0 | 0.00 | 0.00 | 0.00 | 75 | 1025.7 |
| 20260830223441 | 69 | 230 | 0.0 | 0.0 | 0.00 | 0.00 | 0.00 | 75 | 1025.9 |
| 20260830222939 | 69 | 230 | 0.0 | 0.0 | 0.00 | 0.00 | 0.00 | 74 | 1025.8 |
| 20260830222435 | 69 | 230 | 0.0 | 0.0 | 0.00 | 0.00 | 0.00 | 76 | 1025.6 |
| 20260830221930 | 69 | 230 | 0.0 | 0.0 | 0.00 | 0.00 | 0.00 | 75 | 1025.6 |
| 20260830221426 | 69 | 230 | 0.0 | 0.0 | 0.00 | 0.00 | 0.00 | 75 | 1025.6 |
| 20260830220921 | 69 | 230 | 0.0 | 0.0 | 0.00 | 0.00 | 0.00 | 74 | 1025.6 |
| 20260830220416 | 70 | 230 | 0.0 | 0.0 | 0.00 | 0.00 | 0.00 | 73 | 1025.8 |
| 20260830215913 | 70 | 230 | 0.0 | 0.0 | 0.00 | 0.00 | 0.00 | 73 | 1025.4 |
| 20260830215409 | 70 | 230 | 0.0 | 0.0 | 0.00 | 0.00 | 0.00 | 73 | 1025.5 |
| 20260830214903 | 71 | 230 | 0.0 | 0.0 | 0.00 | 0.00 | 0.00 | 72 | 1025.8 |
| 20260830214358 | 71 | 230 | 0.0 | 0.0 | 0.00 | 0.00 | 0.00 | 73 | 1025.7 |
| 20260830213853 | 71 | 230 | 0.0 | 0.0 | 0.00 | 0.00 | 0.00 | 72 | 1025.6 |
| 20260830213348 | 70 | 230 | 0.0 | 0.0 | 0.00 | 0.00 | 0.00 | 72 | 1025.7 |
| 20260830212844 | 71 | 230 | 0.0 | 0.0 | 0.00 | 0.00 | 0.00 | 72 | 1025.9 |
| 20260830212340 | 70 | 230 | 0.0 | 0.0 | 0.00 | 0.00 | 0.00 | 73 | 1025.7 |
| 20260830211839 | 71 | 230 | 0.0 | 0.0 | 0.00 | 0.00 | 0.00 | 72 | 1025.7 |
| 20260830211333 | 71 | 230 | 0.0 | 0.0 | 0.00 | 0.00 | 0.00 | 74 | 1025.8 |
| 20260830210828 | 71 | 230 | 0.0 | 0.0 | 0.00 | 0.00 | 0.00 | 75 | 1025.8 |
| 20260830210327 | 72 | 230 | 0.0 | 0.0 | 0.00 | 0.00 | 0.00 | 74 | 1025.8 |
| 20260830205826 | 71 | 230 | 0.0 | 0.0 | 0.00 | 0.00 | 0.00 | 73 | 1025.8 |
| 20260830205319 | 72 | 230 | 0.0 | 0.0 | 0.00 | 0.00 | 0.00 | 77 | 1025.9 |
| 20260830204815 | 71 | 230 | 0.0 | 0.0 | 0.00 | 0.00 | 0.00 | 75 | 1025.8 |
| 20260830204314 | 71 | 230 | 0.0 | 0.0 | 0.00 | 0.00 | 0.00 | 74 | 1025.9 |
| 20260830203810 | 71 | 230 | 0.0 | 0.0 | 0.00 | 0.00 | 0.00 | 74 | 1025.9 |
| 20260830203306 | 71 | 230 | 0.0 | 0.0 | 0.00 | 0.00 | 0.00 | 74 | 1026.1 |
| 20260830202805 | 71 | 230 | 0.0 | 0.0 | 0.00 | 0.00 | 0.00 | 75 | 1025.9 |
| 20260830202300 | 71 | 230 | 0.0 | 0.0 | 0.00 | 0.00 | 0.00 | 75 | 1026.0 |
| 20260830201754 | 71 | 230 | 0.0 | 0.0 | 0.00 | 0.00 | 0.00 | 76 | 1026.0 |
| 20260830201244 | 71 | 230 | 0.0 | 0.0 | 0.00 | 0.00 | 0.00 | 75 | 1026.1 |
| 20260830200739 | 71 | 230 | 0.0 | 0.0 | 0.00 | 0.00 | 0.00 | 74 | 1026.0 |
| 20260830200238 | 71 | 230 | 0.0 | 0.0 | 0.00 | 0.00 | 0.00 | 72 | 1026.0 |
| 20260830195734 | 71 | 230 | 0.0 | 0.0 | 0.00 | 0.00 | 0.00 | 71 | 1026.3 |
| 20260830195232 | 72 | 230 | 0.0 | 0.0 | 0.00 | 0.00 | 0.00 | 72 | 1026.2 |
| 20260830194731 | 72 | 230 | 0.0 | 0.0 | 0.00 | 0.00 | 0.00 | 73 | 1026.2 |
| 20260830194226 | 72 | 230 | 0.0 | 0.0 | 0.00 | 0.00 | 0.00 | 74 | 1026.4 |
| 20260830193726 | 73 | 230 | 0.0 | 0.0 | 0.00 | 0.00 | 0.00 | 72 | 1026.1 |
| 20260830193220 | 73 | 230 | 0.9 | 0.9 | 0.00 | 0.00 | 0.00 | 68 | 1026.3 |
| 20260830192716 | 72 | 230 | 0.0 | 0.0 | 0.00 | 0.00 | 0.00 | 70 | 1026.2 |
| 20260830192211 | 71 | 230 | 0.0 | 0.0 | 0.00 | 0.00 | 0.00 | 72 | 1026.4 |
| 20260830191707 | 71 | 230 | 0.0 | 0.0 | 0.00 | 0.00 | 0.00 | 71 | 1026.4 |
| 20260830191201 | 71 | 230 | 0.0 | 0.0 | 0.00 | 0.00 | 0.00 | 71 | 1026.5 |
| 20260830190656 | 71 | 230 | 0.0 | 0.0 | 0.00 | 0.00 | 0.00 | 70 | 1026.7 |
| 20260830190152 | 71 | 230 | 0.0 | 0.0 | 0.00 | 0.00 | 0.00 | 74 | 1026.7 |
| 20260830185650 | 71 | 230 | 0.0 | 0.0 | 0.00 | 0.00 | 0.00 | 74 | 1026.7 |
| 20260830185146 | 71 | 230 | 0.0 | 0.0 | 0.00 | 0.00 | 0.00 | 74 | 1026.9 |
| 20260830184645 | 71 | 230 | 0.0 | 0.0 | 0.00 | 0.00 | 0.00 | 76 | 1027.0 |
| 20260830184139 | 71 | 230 | 0.0 | 0.0 | 0.00 | 0.00 | 0.00 | 72 | 1026.8 |
| 20260830183639 | 70 | 230 | 0.0 | 0.0 | 0.00 | 0.00 | 0.00 | 72 | 1027.0 |
| 20260830183135 | 70 | 230 | 0.0 | 0.0 | 0.00 | 0.00 | 0.00 | 71 | 1027.1 |
| 20260830182635 | 70 | 230 | 0.0 | 0.0 | 0.00 | 0.00 | 0.00 | 70 | 1027.2 |
| 20260830182131 | 70 | 230 | 0.0 | 0.0 | 0.00 | 0.00 | 0.00 | 74 | 1027.3 |
| 20260830181627 | 71 | 230 | 0.0 | 0.0 | 0.00 | 0.00 | 0.00 | 74 | 1027.5 |
| 20260830181127 | 70 | 230 | 0.0 | 0.0 | 0.00 | 0.00 | 0.00 | 71 | 1027.3 |
| 20260830180626 | 70 | 230 | 0.0 | 0.0 | 0.00 | 0.00 | 0.00 | 74 | 1027.5 |
| 20260830180126 | 70 | 230 | 0.0 | 0.0 | 0.00 | 0.00 | 0.00 | 75 | 1027.6 |
| 20260830175625 | 70 | 230 | 0.0 | 0.0 | 0.00 | 0.00 | 0.00 | 74 | 1027.7 |
| 20260830175120 | 70 | 230 | 0.0 | 0.0 | 0.00 | 0.00 | 0.00 | 72 | 1027.6 |
| 20260830174616 | 70 | 230 | 0.0 | 0.0 | 0.00 | 0.00 | 0.00 | 71 | 1027.6 |
| 20260830174112 | 71 | 230 | 0.0 | 0.0 | 0.00 | 0.00 | 0.00 | 69 | 1027.9 |
| 20260830173607 | 71 | 230 | 0.0 | 0.0 | 0.00 | 0.00 | 0.00 | 66 | 1027.8 |
| 20260830173102 | 71 | 230 | 0.0 | 0.9 | 0.00 | 0.00 | 0.00 | 65 | 1027.8 |
| 20260830172559 | 71 | 230 | 0.0 | 2.6 | 0.00 | 0.00 | 0.00 | 64 | 1028.0 |
| 20260830172055 | 71 | 230 | 0.0 | 0.0 | 0.00 | 0.00 | 0.00 | 67 | 1027.9 |
| 20260830171550 | 72 | 230 | 0.0 | 0.0 | 0.00 | 0.00 | 0.00 | 68 | 1027.9 |
| 20260830171045 | 71 | 230 | 0.0 | 0.0 | 0.00 | 0.00 | 0.00 | 68 | 1028.1 |
| 20260830170544 | 71 | 230 | 0.0 | 0.0 | 0.00 | 0.00 | 0.00 | 67 | 1028.1 |
| 20260830170044 | 71 | 230 | 0.9 | 0.9 | 0.00 | 0.00 | 0.00 | 65 | 1028.1 |
| 20260830165539 | 70 | 230 | 0.0 | 0.0 | 0.00 | 0.00 | 0.00 | 66 | 1027.9 |
| 20260830165035 | 71 | 230 | 0.0 | 0.0 | 0.00 | 0.00 | 0.00 | 67 | 1028.1 |
| 20260830164530 | 71 | 230 | 0.0 | 0.0 | 0.00 | 0.00 | 0.00 | 69 | 1028.2 |
| 20260830164021 | 71 | 230 | 0.0 | 0.0 | 0.00 | 0.00 | 0.00 | 70 | 1028.2 |
| 20260830163517 | 71 | 230 | 0.0 | 0.0 | 0.00 | 0.00 | 0.00 | 65 | 1028.0 |
| 20260830163016 | 71 | 230 | 0.9 | 0.9 | 0.00 | 0.00 | 0.00 | 64 | 1028.1 |
| 20260830162512 | 71 | 230 | 0.0 | 0.0 | 0.00 | 0.00 | 0.00 | 63 | 1028.2 |
| 20260830162007 | 70 | 230 | 0.0 | 0.9 | 0.00 | 0.00 | 0.00 | 66 | 1028.2 |
| 20260830161502 | 70 | 230 | 0.0 | 0.9 | 0.00 | 0.00 | 0.00 | 65 | 1028.2 |
| 20260830160956 | 70 | 230 | 0.0 | 0.0 | 0.00 | 0.00 | 0.00 | 70 | 1028.3 |
| 20260830160453 | 71 | 230 | 0.0 | 0.0 | 0.00 | 0.00 | 0.00 | 74 | 1028.0 |
| 20260830155947 | 71 | 230 | 0.0 | 0.0 | 0.00 | 0.00 | 0.00 | 70 | 1028.1 |
| 20260830155444 | 71 | 230 | 0.0 | 0.0 | 0.00 | 0.00 | 0.00 | 72 | 1028.2 |
| 20260830154938 | 71 | 230 | 0.0 | 0.0 | 0.00 | 0.00 | 0.00 | 67 | 1028.4 |
| 20260830154434 | 71 | 230 | 0.0 | 0.0 | 0.00 | 0.00 | 0.00 | 69 | 1028.2 |
| 20260830153930 | 72 | 230 | 0.0 | 0.9 | 0.00 | 0.00 | 0.00 | 66 | 1028.0 |
| 20260830153426 | 71 | 230 | 0.0 | 0.9 | 0.00 | 0.00 | 0.00 | 64 | 1028.2 |
| 20260830152925 | 71 | 230 | 0.0 | 0.0 | 0.00 | 0.00 | 0.00 | 63 | 1028.2 |
| 20260830152420 | 71 | 230 | 0.0 | 0.0 | 0.00 | 0.00 | 0.00 | 65 | 1028.4 |
| 20260830151913 | 71 | 230 | 0.9 | 0.9 | 0.00 | 0.00 | 0.00 | 65 | 1028.5 |
| 20260830151414 | 71 | 230 | 0.0 | 0.0 | 0.00 | 0.00 | 0.00 | 64 | 1028.4 |
| 20260830150908 | 71 | 230 | 0.0 | 0.0 | 0.00 | 0.00 | 0.00 | 66 | 1028.6 |
| 20260830150409 | 71 | 230 | 0.0 | 0.0 | 0.00 | 0.00 | 0.00 | 71 | 1028.6 |
| 20260830145902 | 71 | 230 | 0.0 | 0.0 | 0.00 | 0.00 | 0.00 | 65 | 1028.5 |
| 20260830145357 | 70 | 230 | 0.0 | 0.9 | 0.00 | 0.00 | 0.00 | 67 | 1028.6 |
| 20260830144852 | 70 | 230 | 0.0 | 0.0 | 0.00 | 0.00 | 0.00 | 70 | 1028.6 |
| 20260830144349 | 70 | 230 | 0.0 | 0.0 | 0.00 | 0.00 | 0.00 | 76 | 1028.9 |
| 20260830143844 | 70 | 230 | 0.0 | 0.0 | 0.00 | 0.00 | 0.00 | 74 | 1028.7 |
| 20260830143343 | 70 | 230 | 0.0 | 0.0 | 0.00 | 0.00 | 0.00 | 73 | 1029.0 |
| 20260830142838 | 70 | 230 | 0.0 | 0.0 | 0.00 | 0.00 | 0.00 | 70 | 1028.8 |
| 20260830142333 | 70 | 230 | 0.0 | 0.0 | 0.00 | 0.00 | 0.00 | 72 | 1028.6 |
| 20260830141828 | 70 | 230 | 0.0 | 0.0 | 0.00 | 0.00 | 0.00 | 70 | 1028.6 |
| 20260830141323 | 70 | 230 | 0.0 | 0.0 | 0.00 | 0.00 | 0.00 | 69 | 1028.8 |
| 20260830140818 | 69 | 230 | 0.0 | 0.0 | 0.00 | 0.00 | 0.00 | 69 | 1028.8 |
| 20260830140313 | 68 | 230 | 0.0 | 0.0 | 0.00 | 0.00 | 0.00 | 73 | 1028.6 |
| 20260830135807 | 68 | 230 | 0.0 | 0.0 | 0.00 | 0.00 | 0.00 | 74 | 1028.7 |
| 20260830135306 | 69 | 230 | 0.0 | 0.0 | 0.00 | 0.00 | 0.00 | 72 | 1028.9 |
| 20260830134758 | 68 | 230 | 0.0 | 0.0 | 0.00 | 0.00 | 0.00 | 69 | 1028.9 |
| 20260830134258 | 68 | 230 | 0.0 | 0.0 | 0.00 | 0.00 | 0.00 | 74 | 1029.1 |
| 20260830133754 | 67 | 230 | 0.0 | 0.0 | 0.00 | 0.00 | 0.00 | 75 | 1028.8 |
| 20260830133249 | 66 | 230 | 0.0 | 0.0 | 0.00 | 0.00 | 0.00 | 78 | 1028.8 |
| 20260830132745 | 65 | 230 | 0.0 | 0.0 | 0.00 | 0.00 | 0.00 | 80 | 1028.9 |
| 20260830132241 | 64 | 230 | 0.0 | 0.0 | 0.00 | 0.00 | 0.00 | 79 | 1029.0 |
| 20260830131739 | 64 | 230 | 0.0 | 0.0 | 0.00 | 0.00 | 0.00 | 79 | 1029.2 |
| 20260830131234 | 64 | 230 | 0.0 | 0.0 | 0.00 | 0.00 | 0.00 | 81 | 1029.3 |
| 20260830130730 | 64 | 230 | 0.0 | 0.0 | 0.00 | 0.00 | 0.00 | 81 | 1029.0 |
| 20260830130230 | 64 | 230 | 0.0 | 0.0 | 0.00 | 0.00 | 0.00 | 80 | 1029.1 |
| 20260830125724 | 63 | 230 | 0.0 | 0.0 | 0.00 | 0.00 | 0.00 | 82 | 1029.2 |
| 20260830125219 | 63 | 230 | 0.0 | 0.0 | 0.00 | 0.00 | 0.00 | 81 | 1028.9 |
| 20260830124716 | 63 | 230 | 0.0 | 0.0 | 0.00 | 0.00 | 0.00 | 80 | 1029.2 |
| 20260830124212 | 62 | 230 | 0.0 | 0.0 | 0.00 | 0.00 | 0.00 | 83 | 1029.0 |
| 20260830123709 | 62 | 230 | 0.0 | 0.0 | 0.00 | 0.00 | 0.00 | 84 | 1029.2 |
| 20260830123205 | 61 | 230 | 0.0 | 0.0 | 0.00 | 0.00 | 0.00 | 84 | 1029.3 |
| 20260830122702 | 61 | 230 | 0.0 | 0.0 | 0.00 | 0.00 | 0.00 | 85 | 1029.1 |
| 20260830122157 | 60 | 230 | 0.0 | 0.0 | 0.00 | 0.00 | 0.00 | 85 | 1029.1 |
| 20260830121653 | 60 | 230 | 0.0 | 0.0 | 0.00 | 0.00 | 0.00 | 84 | 1029.3 |
| 20260830121152 | 60 | 230 | 0.0 | 0.0 | 0.00 | 0.00 | 0.00 | 85 | 1029.3 |
| 20260830120647 | 60 | 230 | 0.0 | 0.0 | 0.00 | 0.00 | 0.00 | 86 | 1029.3 |
| 20260830120143 | 60 | 230 | 0.0 | 0.0 | 0.00 | 0.00 | 0.00 | 86 | 1029.4 |
| 20260830115639 | 60 | 230 | 0.0 | 0.0 | 0.00 | 0.00 | 0.00 | 85 | 1029.2 |
| 20260830115134 | 60 | 230 | 0.0 | 0.0 | 0.00 | 0.00 | 0.00 | 86 | 1029.1 |
| 20260830114631 | 60 | 230 | 0.0 | 0.0 | 0.00 | 0.00 | 0.00 | 85 | 1029.3 |
| 20260830114131 | 59 | 230 | 0.0 | 0.0 | 0.00 | 0.00 | 0.00 | 85 | 1029.2 |
| 20260830113626 | 59 | 230 | 0.0 | 0.0 | 0.00 | 0.00 | 0.00 | 85 | 1029.2 |
| 20260830113121 | 59 | 230 | 0.0 | 0.0 | 0.00 | 0.00 | 0.00 | 86 | 1029.4 |
| 20260830112618 | 59 | 230 | 0.0 | 0.0 | 0.00 | 0.00 | 0.00 | 86 | 1029.2 |
| 20260830112113 | 59 | 230 | 0.0 | 0.0 | 0.00 | 0.00 | 0.00 | 86 | 1029.2 |
| 20260830111609 | 59 | 230 | 0.0 | 0.0 | 0.00 | 0.00 | 0.00 | 86 | 1029.3 |
| 20260830111104 | 59 | 230 | 0.0 | 0.0 | 0.00 | 0.00 | 0.00 | 86 | 1029.1 |
| 20260830110604 | 59 | 230 | 0.0 | 0.0 | 0.00 | 0.00 | 0.00 | 86 | 1029.2 |
| 20260830110100 | 58 | 230 | 0.0 | 0.0 | 0.00 | 0.00 | 0.00 | 86 | 1029.1 |
| 20260830105555 | 58 | 230 | 0.0 | 0.0 | 0.00 | 0.00 | 0.00 | 86 | 1029.2 |
| 20260830105051 | 57 | 230 | 0.0 | 0.0 | 0.00 | 0.00 | 0.00 | 86 | 1029.3 |
| 20260830104547 | 57 | 230 | 0.0 | 0.0 | 0.00 | 0.00 | 0.00 | 85 | 1029.2 |
| 20260830104043 | 57 | 230 | 0.0 | 0.0 | 0.00 | 0.00 | 0.00 | 85 | 1029.3 |
| 20260830103532 | 57 | 230 | 0.0 | 0.0 | 0.00 | 0.00 | 0.00 | 85 | 1029.3 |
| 20260830103031 | 57 | 230 | 0.0 | 0.0 | 0.00 | 0.00 | 0.00 | 85 | 1029.3 |
| 20260830102531 | 57 | 230 | 0.0 | 0.0 | 0.00 | 0.00 | 0.00 | 85 | 1029.3 |
| 20260830102027 | 57 | 230 | 0.0 | 0.0 | 0.00 | 0.00 | 0.00 | 86 | 1029.4 |
| 20260830101523 | 56 | 230 | 0.0 | 0.0 | 0.00 | 0.00 | 0.00 | 86 | 1029.4 |
| 20260830101022 | 56 | 230 | 0.0 | 0.0 | 0.00 | 0.00 | 0.00 | 87 | 1029.3 |
| 20260830100521 | 56 | 230 | 0.0 | 0.0 | 0.00 | 0.00 | 0.00 | 87 | 1029.4 |
| 20260830100021 | 56 | 230 | 0.0 | 0.0 | 0.00 | 0.00 | 0.00 | 87 | 1029.4 |
| 20260830095516 | 55 | 230 | 0.0 | 0.0 | 0.00 | 0.00 | 0.00 | 87 | 1029.6 |
| 20260830095012 | 55 | 230 | 0.0 | 0.0 | 0.00 | 0.00 | 0.00 | 88 | 1029.5 |
| 20260830094509 | 55 | 230 | 0.0 | 0.0 | 0.00 | 0.00 | 0.00 | 88 | 1029.6 |
| 20260830094003 | 55 | 230 | 0.0 | 0.0 | 0.00 | 0.00 | 0.00 | 88 | 1029.8 |
| 20260830093458 | 55 | 230 | 0.0 | 0.0 | 0.00 | 0.00 | 0.00 | 88 | 1029.7 |
| 20260830092954 | 55 | 230 | 0.0 | 0.0 | 0.00 | 0.00 | 0.00 | 88 | 1029.6 |
| 20260830092449 | 55 | 230 | 0.0 | 0.0 | 0.00 | 0.00 | 0.00 | 88 | 1029.7 |
| 20260830091946 | 54 | 230 | 0.0 | 0.0 | 0.00 | 0.00 | 0.00 | 89 | 1029.7 |
| 20260830091446 | 54 | 230 | 0.0 | 0.0 | 0.00 | 0.00 | 0.00 | 89 | 1029.9 |
| 20260830090945 | 54 | 230 | 0.0 | 0.0 | 0.00 | 0.00 | 0.00 | 89 | 1029.9 |
| 20260830090440 | 54 | 230 | 0.0 | 0.0 | 0.00 | 0.00 | 0.00 | 89 | 1030.0 |
| 20260830085935 | 54 | 230 | 0.0 | 0.0 | 0.00 | 0.00 | 0.00 | 89 | 1029.8 |
| 20260830085430 | 54 | 230 | 0.0 | 0.0 | 0.00 | 0.00 | 0.00 | 89 | 1029.7 |
| 20260830084926 | 54 | 230 | 0.0 | 0.0 | 0.00 | 0.00 | 0.00 | 89 | 1029.9 |
| 20260830084421 | 54 | 230 | 0.0 | 0.0 | 0.00 | 0.00 | 0.00 | 89 | 1029.7 |
| 20260830083916 | 54 | 230 | 0.0 | 0.0 | 0.00 | 0.00 | 0.00 | 89 | 1029.8 |
| 20260830083412 | 54 | 230 | 0.0 | 0.0 | 0.00 | 0.00 | 0.00 | 89 | 1029.8 |
| 20260830082911 | 54 | 230 | 0.0 | 0.0 | 0.00 | 0.00 | 0.00 | 89 | 1029.7 |
| 20260830082407 | 54 | 230 | 0.0 | 0.0 | 0.00 | 0.00 | 0.00 | 89 | 1029.8 |
| 20260830081902 | 54 | 230 | 0.0 | 0.0 | 0.00 | 0.00 | 0.00 | 89 | 1030.0 |
| 20260830081357 | 54 | 230 | 0.0 | 0.0 | 0.00 | 0.00 | 0.00 | 89 | 1029.8 |
| 20260830080856 | 54 | 230 | 0.0 | 0.0 | 0.00 | 0.00 | 0.00 | 89 | 1029.6 |
| 20260830080353 | 54 | 230 | 0.0 | 0.0 | 0.00 | 0.00 | 0.00 | 89 | 1029.9 |
| 20260830075851 | 54 | 230 | 0.0 | 0.0 | 0.00 | 0.00 | 0.00 | 89 | 1029.8 |
| 20260830075347 | 54 | 230 | 0.0 | 0.0 | 0.00 | 0.00 | 0.00 | 88 | 1029.8 |
| 20260830074842 | 54 | 230 | 0.0 | 0.0 | 0.00 | 0.00 | 0.00 | 88 | 1029.7 |
| 20260830074337 | 54 | 230 | 0.0 | 0.0 | 0.00 | 0.00 | 0.00 | 88 | 1029.6 |
| 20260830073833 | 54 | 230 | 0.0 | 0.0 | 0.00 | 0.00 | 0.00 | 88 | 1029.8 |
| 20260830073329 | 54 | 230 | 0.0 | 0.0 | 0.00 | 0.00 | 0.00 | 89 | 1030.1 |
| 20260830072824 | 54 | 230 | 0.0 | 0.0 | 0.00 | 0.00 | 0.00 | 89 | 1029.9 |
| 20260830072320 | 54 | 230 | 0.0 | 0.0 | 0.00 | 0.00 | 0.00 | 88 | 1029.9 |
| 20260830071814 | 53 | 230 | 0.0 | 0.0 | 0.00 | 0.00 | 0.00 | 88 | 1029.8 |
| 20260830071308 | 53 | 230 | 0.0 | 0.0 | 0.00 | 0.00 | 0.00 | 88 | 1029.8 |
| 20260830070807 | 53 | 230 | 0.0 | 0.0 | 0.00 | 0.00 | 0.00 | 88 | 1029.9 |
| 20260830070302 | 53 | 230 | 0.0 | 0.0 | 0.00 | 0.00 | 0.00 | 88 | 1030.0 |
| 20260830065801 | 54 | 230 | 0.0 | 0.0 | 0.00 | 0.00 | 0.00 | 88 | 1030.1 |
| 20260830065255 | 54 | 230 | 0.0 | 0.0 | 0.00 | 0.00 | 0.00 | 88 | 1030.1 |
| 20260830064754 | 54 | 230 | 0.0 | 0.0 | 0.00 | 0.00 | 0.00 | 88 | 1030.0 |
| 20260830064249 | 54 | 230 | 0.0 | 0.0 | 0.00 | 0.00 | 0.00 | 88 | 1030.4 |
| 20260830063744 | 54 | 230 | 0.0 | 0.0 | 0.00 | 0.00 | 0.00 | 88 | 1030.1 |
| 20260830063243 | 54 | 230 | 0.0 | 0.0 | 0.00 | 0.00 | 0.00 | 87 | 1030.3 |
| 20260830062738 | 54 | 230 | 0.0 | 0.0 | 0.00 | 0.00 | 0.00 | 87 | 1030.3 |
| 20260830062232 | 54 | 230 | 0.0 | 0.0 | 0.00 | 0.00 | 0.00 | 87 | 1030.1 |
| 20260830061732 | 54 | 230 | 0.0 | 0.0 | 0.00 | 0.00 | 0.00 | 87 | 1030.1 |
| 20260830061227 | 54 | 230 | 0.0 | 0.0 | 0.00 | 0.00 | 0.00 | 87 | 1030.2 |
| 20260830060725 | 55 | 230 | 0.0 | 0.0 | 0.00 | 0.00 | 0.00 | 87 | 1030.2 |
| 20260830060221 | 55 | 230 | 0.0 | 0.0 | 0.00 | 0.00 | 0.00 | 87 | 1030.4 |
| 20260830055715 | 55 | 230 | 0.0 | 0.0 | 0.00 | 0.00 | 0.00 | 87 | 1030.3 |
| 20260830055212 | 55 | 230 | 0.0 | 0.0 | 0.00 | 0.00 | 0.00 | 87 | 1030.2 |
| 20260830054707 | 54 | 230 | 0.0 | 0.0 | 0.00 | 0.00 | 0.00 | 88 | 1030.4 |
| 20260830054202 | 54 | 230 | 0.0 | 0.0 | 0.00 | 0.00 | 0.00 | 88 | 1030.4 |
| 20260830053658 | 54 | 230 | 0.0 | 0.0 | 0.00 | 0.00 | 0.00 | 88 | 1030.3 |
| 20260830053157 | 54 | 230 | 0.0 | 0.0 | 0.00 | 0.00 | 0.00 | 88 | 1030.5 |
| 20260830052652 | 54 | 230 | 0.0 | 0.0 | 0.00 | 0.00 | 0.00 | 88 | 1030.6 |
| 20260830052148 | 54 | 230 | 0.0 | 0.0 | 0.00 | 0.00 | 0.00 | 88 | 1030.5 |
| 20260830051647 | 54 | 230 | 0.0 | 0.0 | 0.00 | 0.00 | 0.00 | 88 | 1030.4 |
| 20260830051143 | 54 | 230 | 0.0 | 0.0 | 0.00 | 0.00 | 0.00 | 88 | 1030.6 |
| 20260830050642 | 54 | 230 | 0.0 | 0.0 | 0.00 | 0.00 | 0.00 | 88 | 1030.7 |
| 20260830050138 | 54 | 230 | 0.0 | 0.0 | 0.00 | 0.00 | 0.00 | 88 | 1030.5 |
| 20260830045636 | 54 | 230 | 0.0 | 0.0 | 0.00 | 0.00 | 0.00 | 88 | 1030.4 |
| 20260830045131 | 54 | 230 | 0.0 | 0.0 | 0.00 | 0.00 | 0.00 | 88 | 1030.5 |
| 20260830044630 | 53 | 230 | 0.0 | 0.0 | 0.00 | 0.00 | 0.00 | 88 | 1030.6 |
| 20260830044126 | 53 | 230 | 0.0 | 0.0 | 0.00 | 0.00 | 0.00 | 89 | 1030.5 |
| 20260830043621 | 53 | 230 | 0.0 | 0.0 | 0.00 | 0.00 | 0.00 | 89 | 1030.7 |
| 20260830043120 | 53 | 230 | 0.0 | 0.0 | 0.00 | 0.00 | 0.00 | 89 | 1030.7 |
| 20260830042618 | 53 | 230 | 0.0 | 0.0 | 0.00 | 0.00 | 0.00 | 90 | 1030.7 |